createdAt,value
2022-09-05T00:00:12.306Z,17.92
2022-09-05T00:02:53.629Z,17.87
2022-09-05T00:06:00.119Z,17.80
2022-09-05T00:08:45.275Z,17.73
2022-09-05T00:14:53.682Z,17.81
2022-09-05T00:17:22.745Z,17.71
2022-09-05T00:24:33.058Z,17.67
2022-09-05T00:24:36.714Z,17.71
2022-09-05T00:26:20.753Z,17.74
2022-09-05T00:31:55.941Z,17.67
2022-09-05T00:34:47.447Z,17.72
2022-09-05T00:37:32.140Z,17.63
2022-09-05T00:40:18.314Z,17.53
2022-09-05T00:42:57.216Z,17.45
2022-09-05T00:45:31.938Z,17.43
2022-09-05T00:48:08.648Z,17.35
2022-09-05T00:50:54.385Z,17.33
2022-09-05T00:53:29.757Z,17.44
2022-09-05T00:56:07.885Z,17.42
2022-09-05T00:58:58.405Z,17.40
2022-09-05T01:01:32.107Z,17.35
2022-09-05T01:04:26.209Z,17.35
2022-09-05T01:07:11.621Z,17.38
2022-09-05T01:09:51.271Z,17.27
2022-09-05T01:12:53.453Z,17.39
2022-09-05T01:15:33.693Z,17.56
2022-09-05T01:18:15.065Z,17.33
2022-09-05T01:21:02.781Z,17.30
2022-09-05T01:23:50.593Z,17.15
2022-09-05T01:26:47.906Z,17.18
2022-09-05T01:29:26.434Z,17.06
2022-09-05T01:32:10.333Z,16.94
2022-09-05T01:34:55.551Z,16.91
2022-09-05T01:37:34.013Z,16.90
2022-09-05T01:40:16.821Z,16.88
2022-09-05T01:42:57.100Z,16.83
2022-09-05T01:45:42.613Z,16.80
2022-09-05T01:48:24.212Z,16.89
2022-09-05T01:51:28.795Z,16.85
2022-09-05T01:54:21.357Z,16.88
2022-09-05T01:57:09.258Z,16.83
2022-09-05T01:59:47.956Z,16.81
2022-09-05T02:02:24.372Z,16.86
2022-09-05T02:05:12.974Z,16.80
2022-09-05T02:08:16.907Z,16.75
2022-09-05T02:11:01.300Z,16.75
2022-09-05T02:13:43.722Z,16.74
2022-09-05T02:16:21.509Z,16.71
2022-09-05T02:18:58.469Z,16.70
2022-09-05T02:21:56.730Z,16.70
2022-09-05T02:24:30.168Z,16.65
2022-09-05T02:27:35.906Z,16.60
2022-09-05T02:30:09.129Z,16.68
2022-09-05T02:32:49.313Z,16.75
2022-09-05T02:35:27.131Z,16.92
2022-09-05T02:42:19.570Z,16.94
2022-09-05T02:45:02.202Z,17.15
2022-09-05T02:45:24.340Z,17.23
2022-09-05T02:46:51.071Z,17.41
2022-09-05T02:51:11.183Z,17.45
2022-09-05T02:57:30.217Z,17.54
2022-09-05T02:57:42.874Z,17.65
2022-09-05T02:58:37.977Z,17.60
2022-09-05T03:01:27.971Z,17.71
2022-09-05T03:04:05.346Z,17.70
2022-09-05T03:06:37.970Z,17.67
2022-09-05T03:09:21.048Z,17.74
2022-09-05T03:12:29.199Z,17.64
2022-09-05T03:15:24.496Z,17.54
2022-09-05T03:18:23.636Z,17.47
2022-09-05T03:21:34.242Z,17.43
2022-09-05T03:24:25.326Z,17.38
2022-09-05T03:27:43.463Z,17.37
2022-09-05T03:30:16.870Z,17.38
2022-09-05T03:33:24.268Z,17.35
2022-09-05T03:36:32.615Z,17.41
2022-09-05T03:39:51.944Z,17.34
2022-09-05T03:42:56.928Z,17.27
2022-09-05T03:45:54.396Z,17.22
2022-09-05T03:48:48.138Z,17.16
2022-09-05T03:57:07.028Z,17.12
2022-09-05T03:57:18.760Z,17.11
2022-09-05T03:58:31.881Z,17.17
2022-09-05T04:01:39.887Z,17.17
2022-09-05T04:08:17.304Z,17.19
2022-09-05T04:08:23.703Z,17.18
2022-09-05T04:09:51.645Z,17.25
2022-09-05T04:12:25.884Z,17.11
2022-09-05T04:14:59.593Z,17.12
2022-09-05T04:17:36.686Z,16.96
2022-09-05T04:20:12.750Z,16.79
2022-09-05T04:23:07.398Z,16.72
2022-09-05T04:25:49.521Z,16.58
2022-09-05T04:28:43.024Z,16.51
2022-09-05T04:31:32.124Z,16.61
2022-09-05T04:34:16.837Z,16.47
2022-09-05T04:36:47.956Z,16.42
2022-09-05T04:39:54.004Z,16.30
2022-09-05T04:42:25.664Z,16.20
2022-09-05T04:44:58.710Z,16.20
2022-09-05T04:47:36.084Z,16.13
2022-09-05T04:50:10.420Z,16.15
2022-09-05T04:52:57.096Z,16.10
2022-09-05T04:55:28.140Z,16.13
2022-09-05T04:58:00.954Z,16.03
2022-09-05T05:06:03.086Z,16.03
2022-09-05T05:06:13.324Z,15.98
2022-09-05T05:06:45.870Z,16.09
2022-09-05T05:09:23.927Z,16.10
2022-09-05T05:17:33.030Z,16.24
2022-09-05T05:18:06.249Z,16.14
2022-09-05T05:18:14.995Z,16.19
2022-09-05T05:20:45.410Z,16.23
2022-09-05T05:23:17.922Z,16.21
2022-09-05T05:25:50.861Z,16.24
2022-09-05T05:28:28.423Z,16.29
2022-09-05T05:31:09.468Z,16.36
2022-09-05T05:33:41.771Z,16.46
2022-09-05T05:36:20.124Z,16.52
2022-09-05T05:38:51.720Z,16.59
2022-09-05T05:41:26.201Z,16.68
2022-09-05T05:43:55.214Z,16.73
2022-09-05T05:46:34.168Z,16.78
2022-09-05T05:49:18.737Z,16.99
2022-09-05T05:52:04.482Z,17.06
2022-09-05T05:54:42.403Z,17.17
2022-09-05T05:57:45.217Z,17.33
2022-09-05T06:00:27.469Z,17.49
2022-09-05T06:03:41.769Z,17.60
2022-09-05T06:06:22.857Z,17.70
2022-09-05T06:14:52.607Z,17.79
2022-09-05T06:15:04.152Z,17.91
2022-09-05T06:16:36.666Z,18.03
2022-09-05T06:19:37.563Z,18.13
2022-09-05T06:22:55.935Z,18.23
2022-09-05T06:25:55.812Z,18.41
2022-09-05T06:28:30.647Z,18.63
2022-09-05T06:31:30.536Z,18.91
2022-09-05T06:34:33.395Z,19.10
2022-09-05T06:37:17.624Z,19.13
2022-09-05T06:40:11.875Z,19.18
2022-09-05T06:43:07.304Z,19.30
2022-09-05T06:45:49.507Z,19.48
2022-09-05T06:48:46.033Z,19.54
2022-09-05T06:52:16.566Z,19.59
2022-09-05T06:55:16.967Z,19.55
2022-09-05T06:58:21.781Z,19.71
2022-09-05T07:00:54.235Z,19.89
2022-09-05T07:03:46.379Z,20.19
2022-09-05T07:06:49.434Z,20.44
2022-09-05T07:09:28.457Z,20.65
2022-09-05T07:12:11.740Z,20.85
2022-09-05T07:14:51.535Z,20.90
2022-09-05T07:17:30.845Z,21.11
2022-09-05T07:20:01.864Z,22.03
2022-09-05T07:22:48.001Z,23.67
2022-09-05T07:25:21.095Z,25.38
2022-09-05T07:28:25.901Z,26.70
2022-09-05T07:30:50.324Z,28.42
2022-09-05T07:33:22.994Z,29.06
2022-09-05T07:35:58.535Z,29.97
2022-09-05T07:38:52.414Z,30.49
2022-09-05T07:41:23.574Z,30.70
2022-09-05T07:43:58.178Z,31.30
2022-09-05T07:46:30.154Z,31.93
2022-09-05T07:49:04.503Z,32.62
2022-09-05T07:56:49.330Z,34.51
2022-09-05T07:57:08.356Z,33.96
2022-09-05T07:57:31.425Z,35.28
2022-09-05T08:00:08.243Z,35.41
2022-09-05T08:02:55.330Z,34.37
2022-09-05T08:05:35.040Z,34.60
2022-09-05T08:08:09.572Z,36.21
2022-09-05T08:11:22.173Z,35.66
2022-09-05T08:14:32.709Z,34.15
2022-09-05T08:16:47.915Z,33.90
2022-09-05T08:19:42.410Z,34.58
2022-09-05T08:22:21.329Z,35.01
2022-09-05T08:24:58.556Z,36.31
2022-09-05T08:27:31.858Z,36.39
2022-09-05T08:30:26.475Z,37.92
2022-09-05T08:33:10.636Z,36.80
2022-09-05T08:35:44.942Z,37.30
2022-09-05T08:38:16.091Z,38.51
2022-09-05T08:40:52.612Z,38.60
2022-09-05T08:46:29.179Z,40.24
2022-09-05T08:46:47.177Z,39.88
2022-09-05T08:49:44.009Z,39.40
2022-09-05T08:52:22.964Z,39.93
2022-09-05T08:55:08.418Z,40.88
2022-09-05T08:58:16.702Z,40.83
2022-09-05T09:00:56.485Z,40.27
2022-09-05T09:03:35.532Z,38.80
2022-09-05T09:06:38.753Z,40.13
2022-09-05T09:09:13.958Z,39.42
2022-09-05T09:11:52.829Z,39.06
2022-09-05T09:14:32.673Z,40.88
2022-09-05T09:17:12.915Z,42.94
2022-09-05T09:19:51.368Z,41.37
2022-09-05T09:22:34.861Z,39.92
2022-09-05T09:25:15.511Z,40.38
2022-09-05T09:28:47.834Z,39.70
2022-09-05T09:31:21.408Z,41.42
2022-09-05T09:34:01.167Z,40.83
2022-09-05T09:36:53.178Z,42.30
2022-09-05T09:39:39.708Z,42.20
2022-09-05T09:42:32.727Z,43.36
2022-09-05T09:45:31.733Z,42.45
2022-09-05T09:48:47.641Z,43.32
2022-09-05T09:51:39.165Z,43.46
2022-09-05T09:54:25.858Z,39.57
2022-09-05T09:57:26.572Z,39.20
2022-09-05T10:00:07.654Z,40.16
2022-09-05T10:04:07.325Z,42.94
2022-09-05T10:10:49.905Z,42.80
2022-09-05T10:10:53.336Z,44.22
2022-09-05T10:12:40.435Z,44.88
2022-09-05T10:15:30.745Z,43.13
2022-09-05T10:18:27.867Z,43.81
2022-09-05T10:21:28.854Z,42.78
2022-09-05T10:24:21.187Z,42.83
2022-09-05T10:27:11.414Z,41.54
2022-09-05T10:29:57.589Z,42.61
2022-09-05T10:35:11.772Z,45.22
2022-09-05T10:35:37.755Z,44.29
2022-09-05T10:38:12.369Z,44.76
2022-09-05T10:41:14.617Z,44.80
2022-09-05T10:43:38.803Z,44.16
2022-09-05T10:46:40.052Z,43.60
2022-09-05T10:49:12.113Z,44.89
2022-09-05T10:51:52.085Z,47.30
2022-09-05T10:54:37.928Z,46.87
2022-09-05T10:57:25.377Z,47.12
2022-09-05T11:02:22.649Z,48.31
2022-09-05T11:03:00.700Z,46.63
2022-09-05T11:05:34.774Z,45.86
2022-09-05T11:08:11.550Z,47.41
2022-09-05T11:10:45.201Z,49.11
2022-09-05T11:13:21.553Z,49.12
2022-09-05T11:16:04.233Z,46.20
2022-09-05T11:19:03.611Z,45.24
2022-09-05T11:22:04.267Z,46.05
2022-09-05T11:24:55.712Z,46.43
2022-09-05T11:27:32.657Z,43.97
2022-09-05T11:30:06.591Z,45.16
2022-09-05T11:39:26.298Z,46.02
2022-09-05T11:39:50.314Z,44.74
2022-09-05T11:40:09.002Z,46.34
2022-09-05T11:42:33.083Z,42.82
2022-09-05T11:45:41.150Z,41.48
2022-09-05T11:48:37.917Z,40.98
2022-09-05T11:51:52.370Z,41.37
2022-09-05T11:54:50.158Z,44.78
2022-09-05T11:57:35.125Z,46.63
2022-09-05T12:00:31.849Z,44.51
2022-09-05T12:04:00.041Z,43.67
2022-09-05T12:07:15.551Z,43.78
2022-09-05T12:10:12.064Z,44.33
2022-09-05T12:13:21.699Z,44.04
2022-09-05T12:16:07.470Z,43.53
2022-09-05T12:18:45.835Z,44.46
2022-09-05T12:21:31.673Z,44.50
2022-09-05T12:25:16.665Z,45.53
2022-09-05T12:27:44.450Z,46.29
2022-09-05T12:30:00.402Z,45.15
2022-09-05T12:36:01.328Z,46.20
2022-09-05T12:36:11.387Z,45.22
2022-09-05T12:40:55.286Z,41.19
2022-09-05T12:41:45.235Z,43.76
2022-09-05T12:44:44.732Z,47.99
2022-09-05T12:47:21.215Z,41.91
2022-09-05T12:50:03.544Z,37.72
2022-09-05T12:52:46.494Z,34.86
2022-09-05T12:55:26.212Z,37.38
2022-09-05T13:02:57.505Z,37.36
2022-09-05T13:03:01.950Z,36.11
2022-09-05T13:04:16.108Z,35.14
2022-09-05T13:06:40.863Z,33.29
2022-09-05T13:09:27.755Z,35.43
2022-09-05T13:14:58.992Z,37.10
2022-09-05T13:15:22.681Z,39.25
2022-09-05T13:18:00.430Z,38.10
2022-09-05T13:20:36.681Z,35.57
2022-09-05T13:23:16.373Z,34.40
2022-09-05T13:25:50.587Z,33.13
2022-09-05T13:28:25.217Z,36.80
2022-09-05T13:37:53.545Z,41.50
2022-09-05T13:37:55.088Z,44.25
2022-09-05T13:38:14.306Z,39.91
2022-09-05T13:39:49.210Z,35.89
2022-09-05T13:42:21.221Z,34.20
2022-09-05T13:44:54.246Z,32.49
2022-09-05T13:47:39.806Z,31.46
2022-09-05T13:50:25.670Z,32.40
2022-09-05T13:53:05.099Z,32.76
2022-09-05T13:55:43.402Z,32.55
2022-09-05T13:58:19.319Z,32.51
2022-09-05T14:01:21.129Z,32.46
2022-09-05T14:07:45.877Z,31.66
2022-09-05T14:10:45.867Z,32.09
2022-09-05T14:13:20.103Z,32.47
2022-09-05T14:15:59.018Z,32.48
2022-09-05T14:18:34.039Z,35.32
2022-09-05T14:21:18.117Z,38.03
2022-09-05T14:24:03.344Z,41.45
2022-09-05T14:26:41.092Z,42.19
2022-09-05T14:29:18.308Z,41.34
2022-09-05T14:37:36.373Z,39.23
2022-09-05T14:37:40.628Z,35.23
2022-09-05T14:38:34.564Z,36.12
2022-09-05T14:41:54.665Z,35.65
2022-09-05T14:45:13.929Z,36.32
2022-09-05T14:48:13.848Z,36.78
2022-09-05T14:51:25.220Z,37.86
2022-09-05T14:54:00.309Z,36.94
2022-09-05T15:00:34.518Z,35.85
2022-09-05T15:02:50.743Z,34.76
2022-09-05T15:03:02.057Z,35.00
2022-09-05T15:05:46.722Z,33.55
2022-09-05T15:09:29.951Z,32.68
2022-09-05T15:12:18.373Z,32.78
2022-09-05T15:14:06.103Z,31.98
2022-09-05T15:16:40.377Z,32.12
2022-09-05T15:19:13.468Z,31.54
2022-09-05T15:21:41.897Z,31.39
2022-09-05T15:24:17.449Z,31.59
2022-09-05T15:26:52.969Z,31.51
2022-09-05T15:29:26.832Z,31.60
2022-09-05T15:32:13.796Z,31.25
2022-09-05T15:34:43.757Z,30.62
2022-09-05T15:37:36.673Z,29.88
2022-09-05T15:40:23.833Z,29.64
2022-09-05T15:42:56.169Z,29.60
2022-09-05T15:45:29.723Z,29.69
2022-09-05T15:48:08.771Z,29.58
2022-09-05T15:50:46.096Z,29.65
2022-09-05T15:53:23.158Z,29.59
2022-09-05T15:56:00.936Z,29.49
2022-09-05T15:58:52.552Z,29.45
2022-09-05T16:01:32.670Z,29.29
2022-09-05T16:08:05.507Z,29.47
2022-09-05T16:10:38.521Z,30.05
2022-09-05T16:10:40.965Z,29.76
2022-09-05T16:12:52.221Z,30.22
2022-09-05T16:18:58.608Z,30.33
2022-09-05T16:23:16.012Z,30.43
2022-09-05T16:23:29.335Z,30.47
2022-09-05T16:24:24.688Z,30.47
2022-09-05T16:27:02.308Z,30.63
2022-09-05T16:29:36.218Z,30.60
2022-09-05T16:32:24.639Z,30.40
2022-09-05T16:35:24.895Z,30.40
2022-09-05T16:38:02.888Z,30.26
2022-09-05T16:40:36.864Z,30.10
2022-09-05T16:43:11.884Z,29.93
2022-09-05T16:45:48.139Z,29.83
2022-09-05T16:48:41.174Z,29.53
2022-09-05T16:51:28.737Z,29.36
2022-09-05T16:54:13.449Z,29.04
2022-09-05T16:56:46.564Z,28.81
2022-09-05T16:59:19.315Z,28.62
2022-09-05T17:02:07.962Z,28.42
2022-09-05T17:05:05.021Z,28.28
2022-09-05T17:08:03.956Z,28.12
2022-09-05T17:10:36.598Z,27.94
2022-09-05T17:13:10.758Z,27.72
2022-09-05T17:15:52.571Z,27.52
2022-09-05T17:18:31.826Z,27.36
2022-09-05T17:21:10.749Z,27.20
2022-09-05T17:29:17.678Z,27.05
2022-09-05T17:29:33.141Z,26.87
2022-09-05T17:31:25.161Z,26.72
2022-09-05T17:32:43.577Z,26.56
2022-09-05T17:35:42.717Z,26.45
2022-09-05T17:38:49.724Z,26.32
2022-09-05T17:41:52.058Z,26.21
2022-09-05T17:44:27.685Z,26.15
2022-09-05T17:47:10.234Z,26.08
2022-09-05T17:49:45.911Z,26.01
2022-09-05T17:52:24.290Z,25.89
2022-09-05T17:54:55.482Z,25.79
2022-09-05T17:57:39.015Z,25.64
2022-09-05T18:00:41.282Z,25.54
2022-09-05T18:03:11.154Z,25.49
2022-09-05T18:06:03.974Z,25.39
2022-09-05T18:08:52.828Z,25.31
2022-09-05T18:11:36.347Z,25.17
2022-09-05T18:14:50.279Z,25.02
2022-09-05T18:17:50.890Z,24.90
2022-09-05T18:20:27.504Z,24.81
2022-09-05T18:23:18.295Z,24.71
2022-09-05T18:26:02.413Z,24.61
2022-09-05T18:28:35.440Z,24.54
2022-09-05T18:31:43.395Z,24.40
2022-09-05T18:34:41.577Z,24.23
2022-09-05T18:37:47.997Z,24.08
2022-09-05T18:40:44.203Z,24.02
2022-09-05T18:43:30.644Z,23.89
2022-09-05T18:46:05.292Z,23.79
2022-09-05T18:49:15.902Z,23.76
2022-09-05T18:51:49.236Z,23.74
2022-09-05T18:54:20.647Z,23.68
2022-09-05T18:57:26.620Z,23.68
2022-09-05T18:59:52.054Z,23.67
2022-09-05T19:02:51.495Z,23.62
2022-09-05T19:05:28.736Z,23.61
2022-09-05T19:08:29.281Z,23.60
2022-09-05T19:11:27.532Z,23.60
2022-09-05T19:14:25.606Z,23.52
2022-09-05T19:17:03.422Z,23.42
2022-09-05T19:20:33.900Z,23.35
2022-09-05T19:23:10.779Z,23.30
2022-09-05T19:25:44.827Z,23.26
2022-09-05T19:36:44.726Z,23.26
2022-09-05T19:36:48.647Z,23.21
2022-09-05T19:37:09.251Z,23.10
2022-09-05T19:43:51.187Z,22.81
2022-09-05T19:47:44.521Z,22.74
2022-09-05T19:47:49.885Z,22.58
2022-09-05T19:48:35.284Z,22.55
2022-09-05T19:51:16.346Z,22.47
2022-09-05T19:53:48.901Z,22.39
2022-09-05T19:56:44.623Z,22.36
2022-09-05T19:59:22.441Z,22.33
2022-09-05T20:01:53.186Z,22.33
2022-09-05T20:04:24.015Z,22.33
2022-09-05T20:06:52.525Z,22.30
2022-09-05T20:09:43.021Z,22.28
2022-09-05T20:12:22.114Z,22.15
2022-09-05T20:14:53.230Z,22.06
2022-09-05T20:17:30.538Z,21.99
2022-09-05T20:20:13.702Z,21.96
2022-09-05T20:22:50.428Z,21.92
2022-09-05T20:25:36.153Z,21.84
2022-09-05T20:28:10.201Z,21.78
2022-09-05T20:30:43.250Z,21.79
2022-09-05T20:33:21.744Z,21.73
2022-09-05T20:39:22.606Z,21.70
2022-09-05T20:43:21.594Z,21.62
2022-09-05T20:43:32.445Z,21.59
2022-09-05T20:44:42.324Z,21.51
2022-09-05T20:48:31.814Z,21.49
2022-09-05T20:54:13.817Z,21.47
2022-09-05T20:54:17.838Z,21.44
2022-09-05T20:55:48.694Z,21.39
2022-09-05T20:58:24.690Z,21.31
2022-09-05T21:01:21.163Z,21.25
2022-09-05T21:03:57.377Z,21.23
2022-09-05T21:06:41.332Z,21.18
2022-09-05T21:09:17.764Z,21.16
2022-09-05T21:11:56.065Z,21.13
2022-09-05T21:14:30.573Z,21.05
2022-09-05T21:17:14.750Z,21.01
2022-09-05T21:19:53.160Z,21.03
2022-09-05T21:22:26.279Z,20.99
2022-09-05T21:25:15.479Z,20.99
2022-09-05T21:27:56.377Z,20.98
2022-09-05T21:30:30.640Z,20.95
2022-09-05T21:33:06.026Z,20.93
2022-09-05T21:35:42.524Z,20.96
2022-09-05T21:38:14.198Z,20.94
2022-09-05T21:40:52.071Z,20.94
2022-09-05T21:47:34.599Z,20.97
2022-09-05T21:47:48.432Z,20.98
2022-09-05T21:49:01.269Z,21.03
2022-09-05T21:51:30.984Z,21.08
2022-09-05T21:59:14.632Z,21.13
2022-09-05T21:59:27.732Z,21.19
2022-09-05T21:59:47.506Z,21.25
2022-09-05T22:02:16.804Z,21.45
2022-09-05T22:04:47.193Z,21.54
2022-09-05T22:07:30.524Z,21.59
2022-09-05T22:10:16.401Z,21.67
2022-09-05T22:12:51.745Z,21.64
2022-09-05T22:15:27.673Z,21.61
2022-09-05T22:18:26.973Z,21.63
2022-09-05T22:20:51.789Z,21.57
2022-09-05T22:23:44.911Z,21.57
2022-09-05T22:26:15.707Z,21.54
2022-09-05T22:28:49.103Z,21.48
2022-09-05T22:31:19.470Z,21.44
2022-09-05T22:33:51.222Z,21.38
2022-09-05T22:36:20.698Z,21.39
2022-09-05T22:38:50.133Z,21.31
2022-09-05T22:41:29.951Z,21.27
2022-09-05T22:44:00.530Z,21.21
2022-09-05T22:46:29.370Z,21.16
2022-09-05T22:48:57.761Z,21.22
2022-09-05T22:51:26.029Z,21.15
2022-09-05T22:53:54.286Z,21.13
2022-09-05T22:56:38.074Z,21.14
2022-09-05T22:59:09.284Z,21.12
2022-09-05T23:01:38.200Z,21.05
2022-09-05T23:04:06.751Z,20.97
2022-09-05T23:06:38.567Z,20.95
2022-09-05T23:09:07.173Z,20.92
2022-09-05T23:11:35.866Z,20.83
2022-09-05T23:14:08.401Z,20.80
2022-09-05T23:16:36.876Z,20.71
2022-09-05T23:19:05.374Z,20.66
2022-09-05T23:21:39.096Z,20.57
2022-09-05T23:24:07.500Z,20.51
2022-09-05T23:26:35.930Z,20.48
2022-09-05T23:29:04.264Z,20.46
2022-09-05T23:31:34.008Z,20.43
2022-09-05T23:34:02.263Z,20.37
2022-09-05T23:36:31.280Z,20.33
2022-09-05T23:38:59.795Z,20.33
2022-09-05T23:41:28.177Z,20.31
2022-09-05T23:43:56.680Z,20.23
2022-09-05T23:46:25.440Z,20.22
2022-09-05T23:48:55.433Z,20.16
2022-09-05T23:51:23.668Z,20.11
2022-09-05T23:53:52.067Z,20.10
2022-09-05T23:56:20.456Z,20.10
2022-09-05T23:58:49.089Z,20.05
